Terminal Aerodrome Forecast
Issued by NWS

Home | Current Version | Previous Version | Text Only | Print | Product List | Glossary On
Versions: 1 2 3 4 5 6 7 8 9 10 11 12 13
249
FTUS45 KTFX 252339
TAFGTF
TAF
KGTF 252339Z 2600/2624 30010KT P6SM VCTS SCT050 BKN070CB
      TEMPO 2600/2604 5SM -TSRA FEW020 BKN060CB
     FM260500 23010KT P6SM BKN050
     FM261700 25010KT P6SM VCSH SCT040 BKN070=

USA.gov is the U.S. government's official web portal to all federal, state and local government web resources and services.